createdAt,value
2022-12-28T00:01:17.716Z,60.82
2022-12-28T00:03:44.883Z,61.14
2022-12-28T00:06:12.402Z,61.53
2022-12-28T00:08:39.479Z,62.02
2022-12-28T00:11:20.379Z,62.22
2022-12-28T00:13:53.819Z,62.58
2022-12-28T00:16:34.658Z,63.13
2022-12-28T00:19:02.032Z,63.07
2022-12-28T00:21:31.531Z,61.75
2022-12-28T00:23:59.481Z,61.46
2022-12-28T00:26:27.446Z,61.51
2022-12-28T00:28:58.287Z,62.00
2022-12-28T00:31:30.708Z,62.53
2022-12-28T00:33:57.872Z,63.27
2022-12-28T00:36:24.846Z,64.02
2022-12-28T00:39:11.908Z,63.89
2022-12-28T00:41:38.967Z,62.55
2022-12-28T00:44:08.650Z,62.09
2022-12-28T00:46:35.899Z,62.05
2022-12-28T00:49:02.881Z,62.30
2022-12-28T00:51:29.936Z,62.74
2022-12-28T00:53:56.884Z,63.56
2022-12-28T00:56:24.439Z,64.20
2022-12-28T00:58:56.040Z,64.47
2022-12-28T01:01:23.567Z,63.10
2022-12-28T01:03:50.802Z,62.53
2022-12-28T01:06:19.388Z,62.72
2022-12-28T01:08:46.404Z,63.29
2022-12-28T01:11:16.970Z,63.48
2022-12-28T01:13:43.884Z,63.67
2022-12-28T01:16:15.038Z,64.31
2022-12-28T01:18:42.189Z,64.44
2022-12-28T01:21:13.540Z,63.26
2022-12-28T01:23:43.411Z,62.65
2022-12-28T01:26:10.239Z,62.66
2022-12-28T01:28:39.029Z,62.95
2022-12-28T01:31:07.090Z,63.43
2022-12-28T01:33:34.104Z,64.36
2022-12-28T01:36:24.387Z,64.62
2022-12-28T01:38:59.022Z,64.39
2022-12-28T01:41:27.344Z,63.39
2022-12-28T01:43:54.538Z,62.88
2022-12-28T01:46:47.514Z,63.32
2022-12-28T01:49:27.863Z,63.51
2022-12-28T01:52:15.008Z,63.82
2022-12-28T01:54:45.982Z,64.34
2022-12-28T01:57:13.392Z,64.98
2022-12-28T01:59:42.386Z,65.62
2022-12-28T02:02:09.982Z,64.06
2022-12-28T02:04:37.109Z,63.45
2022-12-28T02:07:03.988Z,63.60
2022-12-28T02:09:40.852Z,64.11
2022-12-28T02:12:08.613Z,64.04
2022-12-28T02:14:35.958Z,64.60
2022-12-28T02:17:02.891Z,65.01
2022-12-28T02:19:41.511Z,65.24
2022-12-28T02:22:34.420Z,64.17
2022-12-28T02:25:21.518Z,63.43
2022-12-28T02:28:26.213Z,63.75
2022-12-28T02:31:04.931Z,64.32
2022-12-28T02:33:54.771Z,64.99
2022-12-28T02:36:28.149Z,66.09
2022-12-28T02:39:01.787Z,65.66
2022-12-28T02:41:28.898Z,64.18
2022-12-28T02:43:55.819Z,63.52
2022-12-28T02:46:47.332Z,63.77
2022-12-28T02:49:43.366Z,64.91
2022-12-28T02:52:41.806Z,65.13
2022-12-28T02:55:38.086Z,66.56
2022-12-28T02:58:20.396Z,65.48
2022-12-28T03:01:13.040Z,63.77
2022-12-28T03:03:41.295Z,63.37
2022-12-28T03:06:35.162Z,63.49
2022-12-28T03:09:19.542Z,64.10
2022-12-28T03:11:52.816Z,64.56
2022-12-28T03:14:43.962Z,65.56
2022-12-28T03:17:30.450Z,65.17
2022-12-28T03:20:21.933Z,63.78
2022-12-28T03:23:07.335Z,63.30
2022-12-28T03:25:56.743Z,63.50
2022-12-28T03:28:48.497Z,63.79
2022-12-28T03:31:19.252Z,64.21
2022-12-28T03:33:52.024Z,65.09
2022-12-28T03:36:28.769Z,65.21
2022-12-28T03:39:17.801Z,63.91
2022-12-28T03:42:12.789Z,63.20
2022-12-28T03:44:39.702Z,63.59
2022-12-28T03:47:11.724Z,63.79
2022-12-28T03:49:38.711Z,63.89
2022-12-28T03:52:07.193Z,64.74
2022-12-28T03:54:34.092Z,65.27
2022-12-28T03:57:01.320Z,65.12
2022-12-28T03:59:31.408Z,63.95
2022-12-28T04:01:59.426Z,63.11
2022-12-28T04:04:28.119Z,63.07
2022-12-28T04:06:55.079Z,63.57
2022-12-28T04:09:22.628Z,63.72
2022-12-28T04:11:49.568Z,64.12
2022-12-28T04:14:22.043Z,64.80
2022-12-28T04:16:50.353Z,64.59
2022-12-28T04:19:17.914Z,63.42
2022-12-28T04:21:45.957Z,62.62
2022-12-28T04:24:12.952Z,62.70
2022-12-28T04:26:40.648Z,63.03
2022-12-28T04:29:08.914Z,63.33
2022-12-28T04:31:44.998Z,64.13
2022-12-28T04:34:14.727Z,64.75
2022-12-28T04:36:47.371Z,64.59
2022-12-28T04:39:16.930Z,63.27
2022-12-28T04:41:43.956Z,62.60
2022-12-28T04:44:10.799Z,62.61
2022-12-28T04:46:38.185Z,63.02
2022-12-28T04:49:05.287Z,63.57
2022-12-28T04:51:35.449Z,63.84
2022-12-28T04:54:03.003Z,64.69
2022-12-28T04:56:30.116Z,64.57
2022-12-28T04:58:58.501Z,63.19
2022-12-28T05:01:25.772Z,62.66
2022-12-28T05:03:56.520Z,62.44
2022-12-28T05:06:25.480Z,62.73
2022-12-28T05:08:53.145Z,62.97
2022-12-28T05:11:21.634Z,63.42
2022-12-28T05:13:48.952Z,63.94
2022-12-28T05:16:18.850Z,64.23
2022-12-28T05:18:45.868Z,64.26
2022-12-28T05:21:17.848Z,63.04
2022-12-28T05:23:47.229Z,62.29
2022-12-28T05:26:16.457Z,62.22
2022-12-28T05:28:43.358Z,62.41
2022-12-28T05:31:14.945Z,62.90
2022-12-28T05:33:42.268Z,63.61
2022-12-28T05:36:11.031Z,64.02
2022-12-28T05:38:39.018Z,64.40
2022-12-28T05:41:07.368Z,64.45
2022-12-28T05:43:34.338Z,63.14
2022-12-28T05:46:12.818Z,62.50
2022-12-28T05:48:40.403Z,62.70
2022-12-28T05:51:11.644Z,62.94
2022-12-28T05:53:38.948Z,62.97
2022-12-28T05:56:14.839Z,63.49
2022-12-28T05:58:43.395Z,64.40
2022-12-28T06:01:17.137Z,64.32
2022-12-28T06:03:46.284Z,63.31
2022-12-28T06:06:14.708Z,62.85
2022-12-28T06:08:42.073Z,62.48
2022-12-28T06:11:12.383Z,62.99
2022-12-28T06:13:39.364Z,63.41
2022-12-28T06:16:07.430Z,63.93
2022-12-28T06:18:34.679Z,63.98
2022-12-28T06:21:05.796Z,64.65
2022-12-28T06:23:33.886Z,64.79
2022-12-28T06:26:02.187Z,63.64
2022-12-28T06:28:29.422Z,63.12
2022-12-28T06:31:07.397Z,62.78
2022-12-28T06:33:35.030Z,62.65
2022-12-28T06:36:02.506Z,62.69
2022-12-28T06:38:32.606Z,63.34
2022-12-28T06:41:14.609Z,63.98
2022-12-28T06:43:42.894Z,64.78
2022-12-28T06:46:10.334Z,64.85
2022-12-28T06:48:37.278Z,63.40
2022-12-28T06:51:12.761Z,62.49
2022-12-28T06:53:39.914Z,62.93
2022-12-28T06:56:19.628Z,63.16
2022-12-28T06:58:47.300Z,63.74
2022-12-28T07:01:22.362Z,64.11
2022-12-28T07:03:50.080Z,64.21
2022-12-28T07:06:17.955Z,65.09
2022-12-28T08:47:23.947Z,71.97
2022-12-28T08:49:50.863Z,68.78
2022-12-28T08:52:17.728Z,65.80
2022-12-28T08:54:44.545Z,63.16
2022-12-28T08:57:11.416Z,62.27
2022-12-28T08:59:38.678Z,61.51
2022-12-28T09:02:05.666Z,61.69
2022-12-28T09:04:32.878Z,61.52
2022-12-28T09:06:59.829Z,61.52
2022-12-28T09:09:27.161Z,61.85
2022-12-28T09:11:54.124Z,61.32
2022-12-28T09:14:24.114Z,61.91
2022-12-28T09:16:52.999Z,59.63
2022-12-28T09:19:20.077Z,58.18
2022-12-28T09:21:49.259Z,58.46
2022-12-28T09:24:16.689Z,57.56
2022-12-28T09:26:43.891Z,56.89
2022-12-28T09:29:11.984Z,58.02
2022-12-28T09:31:40.655Z,59.36
2022-12-28T09:36:56.009Z,58.26
2022-12-28T09:39:25.091Z,58.65
2022-12-28T09:42:16.939Z,58.06
2022-12-28T09:44:56.207Z,58.80
2022-12-28T09:47:26.812Z,58.89
2022-12-28T09:50:09.170Z,57.86
2022-12-28T09:52:49.535Z,58.05
2022-12-28T09:55:18.389Z,58.65
2022-12-28T09:57:48.342Z,56.43
2022-12-28T10:00:33.448Z,54.41
2022-12-28T10:03:02.025Z,54.43
2022-12-28T10:05:29.234Z,54.79
2022-12-28T10:07:58.511Z,54.44
2022-12-28T10:10:25.466Z,56.36
2022-12-28T10:12:53.373Z,55.94
2022-12-28T10:15:20.308Z,55.85
2022-12-28T10:17:47.341Z,56.28
2022-12-28T10:20:20.316Z,55.24
2022-12-28T10:22:54.235Z,54.64
2022-12-28T10:25:22.810Z,55.82
2022-12-28T10:27:49.883Z,55.03
2022-12-28T10:30:27.303Z,55.98
2022-12-28T10:33:03.177Z,54.34
2022-12-28T10:35:35.714Z,54.80
2022-12-28T10:38:04.328Z,55.03
2022-12-28T10:40:34.157Z,55.58
2022-12-28T10:43:06.943Z,54.67
2022-12-28T10:45:41.479Z,54.62
2022-12-28T10:48:10.572Z,53.99
2022-12-28T10:50:48.179Z,55.09
2022-12-28T10:53:26.097Z,54.66
2022-12-28T10:56:07.341Z,53.57
2022-12-28T10:58:34.391Z,53.07
2022-12-28T11:01:05.228Z,53.13
2022-12-28T11:03:37.026Z,53.89
2022-12-28T11:06:26.354Z,53.33
2022-12-28T11:09:18.070Z,53.36
2022-12-28T11:11:46.365Z,54.84
2022-12-28T11:14:37.149Z,52.71
2022-12-28T11:17:23.991Z,52.87
2022-12-28T11:19:52.956Z,47.99
2022-12-28T11:22:24.114Z,46.00
2022-12-28T11:24:51.012Z,44.32
2022-12-28T11:27:19.346Z,45.31
2022-12-28T11:29:49.453Z,45.05
2022-12-28T11:32:22.688Z,41.68
2022-12-28T11:34:50.324Z,41.40
2022-12-28T11:37:17.307Z,42.78
2022-12-28T11:39:47.197Z,40.55
2022-12-28T11:42:41.010Z,40.94
2022-12-28T11:45:17.187Z,41.63
2022-12-28T11:47:45.741Z,40.35
2022-12-28T11:50:36.607Z,38.75
2022-12-28T11:53:09.059Z,37.68
2022-12-28T11:55:39.101Z,36.47
2022-12-28T11:58:30.838Z,35.73
2022-12-28T12:01:00.231Z,36.56
2022-12-28T12:04:06.615Z,37.31
2022-12-28T12:06:43.210Z,36.10
2022-12-28T12:09:23.914Z,36.39
2022-12-28T12:11:59.235Z,38.18
2022-12-28T12:14:33.623Z,38.53
2022-12-28T12:17:05.704Z,38.40
2022-12-28T12:19:39.005Z,38.47
2022-12-28T12:22:25.020Z,38.69
2022-12-28T12:24:56.677Z,40.21
2022-12-28T12:27:36.652Z,38.59
2022-12-28T12:30:15.083Z,38.27
2022-12-28T12:32:47.583Z,39.94
2022-12-28T12:35:20.170Z,41.81
2022-12-28T12:38:00.229Z,42.10
2022-12-28T12:41:01.571Z,42.10
2022-12-28T12:43:46.731Z,41.91
2022-12-28T12:46:16.682Z,41.10
2022-12-28T12:49:20.660Z,43.99
2022-12-28T12:52:15.171Z,42.87
2022-12-28T12:55:10.620Z,42.62
2022-12-28T12:58:04.673Z,42.58
2022-12-28T13:00:53.135Z,42.55
2022-12-28T13:03:40.881Z,43.69
2022-12-28T13:06:07.782Z,42.66
2022-12-28T13:08:42.070Z,44.35
2022-12-28T13:11:10.300Z,44.16
2022-12-28T13:13:38.836Z,44.89
2022-12-28T13:16:16.998Z,46.74
2022-12-28T13:19:00.924Z,47.73
2022-12-28T13:21:29.560Z,45.79
2022-12-28T13:23:56.734Z,46.00
2022-12-28T13:26:28.623Z,45.70
2022-12-28T13:28:59.598Z,46.14
2022-12-28T13:31:36.336Z,47.09
2022-12-28T13:34:24.536Z,48.25
2022-12-28T13:36:53.846Z,48.93
2022-12-28T13:39:20.876Z,47.04
2022-12-28T13:41:58.845Z,47.82
2022-12-28T13:44:43.861Z,48.70
2022-12-28T13:47:13.579Z,47.26
2022-12-28T13:49:47.724Z,47.52
2022-12-28T13:52:18.197Z,48.53
2022-12-28T13:54:47.517Z,49.67
2022-12-28T13:57:45.224Z,48.94
2022-12-28T14:00:01.204Z,48.68
2022-12-28T14:02:28.918Z,48.91
2022-12-28T14:04:55.979Z,49.24
2022-12-28T14:07:25.010Z,49.52
2022-12-28T14:09:51.828Z,50.01
2022-12-28T14:12:19.520Z,50.56
2022-12-28T14:14:47.712Z,51.15
2022-12-28T14:17:14.561Z,51.36
2022-12-28T14:19:42.060Z,51.94
2022-12-28T14:22:34.675Z,52.62
2022-12-28T14:25:12.589Z,53.11
2022-12-28T14:27:45.682Z,53.12
2022-12-28T14:30:28.962Z,53.49
2022-12-28T14:32:56.791Z,54.03
2022-12-28T14:35:25.854Z,53.92
2022-12-28T14:37:54.644Z,54.20
2022-12-28T14:40:26.998Z,54.82
2022-12-28T14:42:54.364Z,54.82
2022-12-28T14:46:07.140Z,54.79
2022-12-28T14:48:29.626Z,55.09
2022-12-28T14:51:17.592Z,55.18
2022-12-28T14:53:45.003Z,55.31
2022-12-28T14:56:16.451Z,55.71
2022-12-28T14:58:55.167Z,55.01
2022-12-28T15:01:22.323Z,54.83
2022-12-28T15:03:57.360Z,55.01
2022-12-28T15:06:28.815Z,54.72
2022-12-28T15:08:58.411Z,55.02
2022-12-28T15:11:26.970Z,54.34
2022-12-28T15:13:53.921Z,53.20
2022-12-28T15:16:23.216Z,53.16
2022-12-28T15:18:50.710Z,53.04
2022-12-28T15:21:19.412Z,52.85
2022-12-28T15:23:50.380Z,52.29
2022-12-28T15:26:17.828Z,52.37
2022-12-28T15:28:44.708Z,51.56
2022-12-28T15:31:14.150Z,51.71
2022-12-28T15:33:41.062Z,51.00
2022-12-28T15:36:17.380Z,50.36
2022-12-28T15:38:45.695Z,49.45
2022-12-28T15:41:31.445Z,49.65
2022-12-28T15:43:59.445Z,49.37
2022-12-28T15:46:26.455Z,49.65
2022-12-28T15:48:53.641Z,49.45
2022-12-28T15:51:20.591Z,49.50
2022-12-28T15:53:47.501Z,49.62
2022-12-28T15:56:22.153Z,49.88
2022-12-28T15:58:49.172Z,50.78
2022-12-28T16:01:16.137Z,51.49
2022-12-28T16:03:43.067Z,52.34
2022-12-28T16:06:10.253Z,52.71
2022-12-28T16:08:37.115Z,53.47
2022-12-28T16:11:11.414Z,53.94
2022-12-28T16:13:38.244Z,54.71
2022-12-28T16:16:09.719Z,54.35
2022-12-28T16:18:36.776Z,55.20
2022-12-28T16:21:05.436Z,55.27
2022-12-28T16:23:36.519Z,55.52
2022-12-28T16:26:03.483Z,55.79
2022-12-28T16:28:30.631Z,56.22
2022-12-28T16:30:57.693Z,56.25
2022-12-28T16:33:24.893Z,56.70
2022-12-28T16:35:59.148Z,56.98
2022-12-28T16:38:27.942Z,57.26
2022-12-28T16:40:57.961Z,57.78
2022-12-28T16:43:24.943Z,56.38
2022-12-28T16:45:51.974Z,55.39
2022-12-28T16:48:18.993Z,55.54
2022-12-28T16:50:45.857Z,55.95
2022-12-28T16:53:12.897Z,56.70
2022-12-28T16:55:41.241Z,56.89
2022-12-28T16:58:08.670Z,57.16
2022-12-28T17:00:35.782Z,57.42
2022-12-28T17:06:32.649Z,60.66
2022-12-28T17:09:03.389Z,59.57
2022-12-28T17:11:31.027Z,59.69
2022-12-28T17:14:02.806Z,60.04
2022-12-28T17:16:29.953Z,58.89
2022-12-28T17:18:57.502Z,58.00
2022-12-28T17:21:24.458Z,57.66
2022-12-28T18:55:58.982Z,66.10
2022-12-28T18:58:27.237Z,64.35
2022-12-28T19:00:54.641Z,62.50
2022-12-28T19:03:21.677Z,61.01
2022-12-28T19:06:02.320Z,60.66
2022-12-28T19:08:31.242Z,60.66
2022-12-28T19:10:58.617Z,60.95
2022-12-28T19:13:25.555Z,61.04
2022-12-28T19:15:52.707Z,61.36
2022-12-28T19:18:19.890Z,61.47
2022-12-28T19:20:46.729Z,61.67
2022-12-28T19:23:13.646Z,62.15
2022-12-28T19:25:40.594Z,60.73
2022-12-28T19:28:07.647Z,59.96
2022-12-28T19:30:35.841Z,59.70
2022-12-28T19:33:02.869Z,59.76
2022-12-28T19:35:29.909Z,60.04
2022-12-28T19:37:56.859Z,60.23
2022-12-28T19:40:24.018Z,60.88
2022-12-28T19:42:51.161Z,60.76
2022-12-28T19:45:18.365Z,61.01
2022-12-28T19:47:45.545Z,61.48
2022-12-28T19:50:12.421Z,61.32
2022-12-28T19:52:40.392Z,60.16
2022-12-28T19:55:07.682Z,59.20
2022-12-28T19:57:38.653Z,59.10
2022-12-28T20:00:07.379Z,59.10
2022-12-28T20:02:34.614Z,59.36
2022-12-28T20:05:01.545Z,59.45
2022-12-28T20:07:29.084Z,59.79
2022-12-28T20:09:55.976Z,60.12
2022-12-28T20:12:22.837Z,60.80
2022-12-28T20:14:49.678Z,61.42
2022-12-28T20:17:16.775Z,61.71
2022-12-28T20:19:43.586Z,60.76
2022-12-28T20:22:10.426Z,59.76
2022-12-28T20:24:37.551Z,59.57
2022-12-28T20:27:04.439Z,59.75
2022-12-28T20:29:32.591Z,60.18
2022-12-28T20:31:59.928Z,60.59
2022-12-28T20:34:27.393Z,60.79
2022-12-28T20:36:54.255Z,61.36
2022-12-28T20:39:21.601Z,61.86
2022-12-28T20:42:07.201Z,62.57
2022-12-28T20:44:34.762Z,62.33
2022-12-28T20:47:04.541Z,61.17
2022-12-28T20:49:31.887Z,60.64
2022-12-28T20:51:59.017Z,60.69
2022-12-28T20:54:26.110Z,61.00
2022-12-28T20:56:55.734Z,61.34
2022-12-28T20:59:24.949Z,62.48
2022-12-28T21:01:52.370Z,62.57
2022-12-28T21:04:19.408Z,62.69
2022-12-28T21:06:46.717Z,63.11
2022-12-28T21:09:13.634Z,63.20
2022-12-28T21:11:41.193Z,62.13
2022-12-28T21:14:08.106Z,61.57
2022-12-28T21:16:35.093Z,61.38
2022-12-28T21:19:02.045Z,61.53
2022-12-28T21:21:29.171Z,61.96
2022-12-28T21:23:56.275Z,61.89
2022-12-28T21:26:23.155Z,62.41
2022-12-28T21:28:50.081Z,62.68
2022-12-28T21:31:17.091Z,63.43
2022-12-28T21:33:47.257Z,63.61
2022-12-28T21:36:18.375Z,62.59
2022-12-28T21:38:46.429Z,61.93
2022-12-28T21:41:38.084Z,61.75
2022-12-28T21:44:09.916Z,62.83
2022-12-28T21:46:36.768Z,62.38
2022-12-28T21:49:04.102Z,62.67
2022-12-28T21:51:31.635Z,63.41
2022-12-28T21:53:59.412Z,64.35
2022-12-28T21:56:27.947Z,64.36
2022-12-28T21:58:55.312Z,63.10
2022-12-28T22:01:41.382Z,61.53
2022-12-28T22:04:29.707Z,61.42
2022-12-28T22:06:56.600Z,62.45
2022-12-28T22:09:42.062Z,62.88
2022-12-28T22:12:30.388Z,62.41
2022-12-28T22:15:16.954Z,63.02
2022-12-28T22:17:44.047Z,63.68
2022-12-28T22:20:12.007Z,63.87
2022-12-28T22:22:40.082Z,64.21
2022-12-28T22:25:07.507Z,62.77
2022-12-28T22:27:34.594Z,61.94
2022-12-28T22:30:01.506Z,61.39
2022-12-28T22:32:28.513Z,61.86
2022-12-28T22:34:55.724Z,61.91
2022-12-28T22:37:22.592Z,62.26
2022-12-28T22:39:49.467Z,62.66
2022-12-28T22:42:16.383Z,63.38
2022-12-28T22:44:43.218Z,63.60
2022-12-28T22:47:10.051Z,62.33
2022-12-28T22:49:37.066Z,61.86
2022-12-28T22:52:04.044Z,61.39
2022-12-28T22:54:31.178Z,61.78
2022-12-28T22:56:58.075Z,62.24
2022-12-28T22:59:24.992Z,62.79
2022-12-28T23:01:53.082Z,63.46
2022-12-28T23:04:20.299Z,63.41
2022-12-28T23:06:47.138Z,64.03
2022-12-28T23:09:14.091Z,62.47
2022-12-28T23:11:41.367Z,61.76
2022-12-28T23:14:30.177Z,61.58
2022-12-28T23:16:58.007Z,61.86
2022-12-28T23:19:43.847Z,62.27
2022-12-28T23:22:32.898Z,62.78
2022-12-28T23:25:18.545Z,63.39
2022-12-28T23:27:45.711Z,63.75
2022-12-28T23:30:17.813Z,63.69
2022-12-28T23:32:45.718Z,62.50
2022-12-28T23:35:12.640Z,61.72
2022-12-28T23:37:39.667Z,61.25
2022-12-28T23:40:08.033Z,61.48
2022-12-28T23:42:36.283Z,61.69
2022-12-28T23:45:07.568Z,62.00
2022-12-28T23:47:34.865Z,62.71
2022-12-28T23:50:01.823Z,62.94
2022-12-28T23:52:28.776Z,63.72
2022-12-28T23:54:55.634Z,63.87
2022-12-28T23:57:23.087Z,62.95
2022-12-28T23:59:50.115Z,62.16
